sensor_id;sensor_type;location;lat;lon;timestamp;P1;durP1;ratioP1;P2;durP2;ratioP2
8086;SDS011;4086;54.412;9.980;2022-07-10T00:00:55;3.30;;;1.67;;
8086;SDS011;4086;54.412;9.980;2022-07-10T00:03:21;3.50;;;1.40;;
8086;SDS011;4086;54.412;9.980;2022-07-10T00:05:48;1.57;;;1.30;;
8086;SDS011;4086;54.412;9.980;2022-07-10T00:08:16;5.00;;;1.23;;
8086;SDS011;4086;54.412;9.980;2022-07-10T00:10:42;6.53;;;1.57;;
8086;SDS011;4086;54.412;9.980;2022-07-10T00:13:09;5.40;;;1.67;;
8086;SDS011;4086;54.412;9.980;2022-07-10T00:15:36;3.77;;;1.20;;
8086;SDS011;4086;54.412;9.980;2022-07-10T00:18:02;4.47;;;1.20;;
8086;SDS011;4086;54.412;9.980;2022-07-10T00:20:28;3.80;;;1.77;;
8086;SDS011;4086;54.412;9.980;2022-07-10T00:22:55;2.60;;;1.10;;
8086;SDS011;4086;54.412;9.980;2022-07-10T00:25:23;5.53;;;1.43;;
8086;SDS011;4086;54.412;9.980;2022-07-10T00:27:49;1.50;;;1.20;;
8086;SDS011;4086;54.412;9.980;2022-07-10T00:30:15;4.20;;;1.97;;
8086;SDS011;4086;54.412;9.980;2022-07-10T00:32:42;5.63;;;1.60;;
8086;SDS011;4086;54.412;9.980;2022-07-10T00:35:08;3.53;;;1.40;;
8086;SDS011;4086;54.412;9.980;2022-07-10T00:37:35;4.73;;;1.20;;
8086;SDS011;4086;54.412;9.980;2022-07-10T00:40:02;2.83;;;1.37;;
8086;SDS011;4086;54.412;9.980;2022-07-10T00:42:31;3.47;;;1.43;;
8086;SDS011;4086;54.412;9.980;2022-07-10T00:44:58;4.77;;;1.97;;
8086;SDS011;4086;54.412;9.980;2022-07-10T00:47:25;2.97;;;1.30;;
8086;SDS011;4086;54.412;9.980;2022-07-10T00:49:51;4.67;;;1.53;;
8086;SDS011;4086;54.412;9.980;2022-07-10T00:52:18;7.27;;;1.80;;
8086;SDS011;4086;54.412;9.980;2022-07-10T00:54:45;7.60;;;2.10;;
8086;SDS011;4086;54.412;9.980;2022-07-10T00:57:15;5.30;;;1.57;;
8086;SDS011;4086;54.412;9.980;2022-07-10T00:59:44;4.47;;;1.50;;
8086;SDS011;4086;54.412;9.980;2022-07-10T01:02:11;5.70;;;1.50;;
8086;SDS011;4086;54.412;9.980;2022-07-10T01:04:39;3.73;;;1.80;;
8086;SDS011;4086;54.412;9.980;2022-07-10T01:07:06;2.87;;;1.27;;
8086;SDS011;4086;54.412;9.980;2022-07-10T01:09:32;3.47;;;1.60;;
8086;SDS011;4086;54.412;9.980;2022-07-10T01:11:59;4.07;;;1.87;;
8086;SDS011;4086;54.412;9.980;2022-07-10T01:14:26;3.43;;;1.60;;
8086;SDS011;4086;54.412;9.980;2022-07-10T01:16:54;5.47;;;1.30;;
8086;SDS011;4086;54.412;9.980;2022-07-10T01:19:20;6.60;;;1.50;;
8086;SDS011;4086;54.412;9.980;2022-07-10T01:21:48;3.90;;;1.23;;
8086;SDS011;4086;54.412;9.980;2022-07-10T01:24:15;4.47;;;1.90;;
8086;SDS011;4086;54.412;9.980;2022-07-10T01:26:41;4.57;;;1.20;;
8086;SDS011;4086;54.412;9.980;2022-07-10T01:29:08;2.67;;;1.63;;
8086;SDS011;4086;54.412;9.980;2022-07-10T01:31:36;4.43;;;1.20;;
8086;SDS011;4086;54.412;9.980;2022-07-10T01:34:04;4.40;;;1.60;;
8086;SDS011;4086;54.412;9.980;2022-07-10T01:36:31;4.87;;;1.60;;
8086;SDS011;4086;54.412;9.980;2022-07-10T01:38:59;5.37;;;1.83;;
8086;SDS011;4086;54.412;9.980;2022-07-10T01:41:26;6.13;;;2.27;;
8086;SDS011;4086;54.412;9.980;2022-07-10T01:43:53;4.33;;;1.93;;
8086;SDS011;4086;54.412;9.980;2022-07-10T01:46:19;3.50;;;1.60;;
8086;SDS011;4086;54.412;9.980;2022-07-10T01:48:46;5.90;;;2.23;;
8086;SDS011;4086;54.412;9.980;2022-07-10T01:51:12;7.37;;;2.00;;
8086;SDS011;4086;54.412;9.980;2022-07-10T01:53:39;2.97;;;1.33;;
8086;SDS011;4086;54.412;9.980;2022-07-10T01:56:08;3.40;;;1.40;;
8086;SDS011;4086;54.412;9.980;2022-07-10T01:58:35;4.70;;;1.80;;
8086;SDS011;4086;54.412;9.980;2022-07-10T02:01:02;3.87;;;1.70;;
8086;SDS011;4086;54.412;9.980;2022-07-10T02:03:29;6.67;;;1.77;;
8086;SDS011;4086;54.412;9.980;2022-07-10T02:06:13;6.87;;;2.40;;
8086;SDS011;4086;54.412;9.980;2022-07-10T02:08:39;6.43;;;1.93;;
8086;SDS011;4086;54.412;9.980;2022-07-10T02:11:07;6.17;;;1.57;;
8086;SDS011;4086;54.412;9.980;2022-07-10T02:13:33;5.27;;;1.70;;
8086;SDS011;4086;54.412;9.980;2022-07-10T02:16:00;4.53;;;1.80;;
8086;SDS011;4086;54.412;9.980;2022-07-10T02:18:26;3.90;;;1.73;;
8086;SDS011;4086;54.412;9.980;2022-07-10T02:20:54;4.20;;;1.73;;
8086;SDS011;4086;54.412;9.980;2022-07-10T02:23:20;5.60;;;1.90;;
8086;SDS011;4086;54.412;9.980;2022-07-10T02:25:46;4.27;;;1.50;;
8086;SDS011;4086;54.412;9.980;2022-07-10T02:28:14;4.40;;;1.77;;
8086;SDS011;4086;54.412;9.980;2022-07-10T02:30:41;4.40;;;1.50;;
8086;SDS011;4086;54.412;9.980;2022-07-10T02:33:07;5.23;;;1.67;;
8086;SDS011;4086;54.412;9.980;2022-07-10T02:35:34;3.90;;;1.77;;
8086;SDS011;4086;54.412;9.980;2022-07-10T02:38:00;6.33;;;2.03;;
8086;SDS011;4086;54.412;9.980;2022-07-10T02:40:27;4.90;;;1.80;;
8086;SDS011;4086;54.412;9.980;2022-07-10T02:42:53;6.90;;;2.23;;
8086;SDS011;4086;54.412;9.980;2022-07-10T02:45:21;5.57;;;1.83;;
8086;SDS011;4086;54.412;9.980;2022-07-10T02:47:47;5.90;;;2.10;;
8086;SDS011;4086;54.412;9.980;2022-07-10T02:50:14;5.30;;;1.67;;
8086;SDS011;4086;54.412;9.980;2022-07-10T02:52:40;3.83;;;1.80;;
8086;SDS011;4086;54.412;9.980;2022-07-10T02:55:07;5.57;;;2.10;;
8086;SDS011;4086;54.412;9.980;2022-07-10T02:57:34;6.10;;;1.80;;
8086;SDS011;4086;54.412;9.980;2022-07-10T03:00:01;9.43;;;2.13;;
8086;SDS011;4086;54.412;9.980;2022-07-10T03:02:28;4.87;;;2.10;;
8086;SDS011;4086;54.412;9.980;2022-07-10T03:04:55;4.30;;;1.50;;
8086;SDS011;4086;54.412;9.980;2022-07-10T03:07:21;3.03;;;1.60;;
8086;SDS011;4086;54.412;9.980;2022-07-10T03:09:47;6.43;;;1.90;;
8086;SDS011;4086;54.412;9.980;2022-07-10T03:12:14;9.10;;;1.70;;
8086;SDS011;4086;54.412;9.980;2022-07-10T03:14:40;5.67;;;1.73;;
8086;SDS011;4086;54.412;9.980;2022-07-10T03:17:07;6.87;;;2.07;;
8086;SDS011;4086;54.412;9.980;2022-07-10T03:19:34;4.57;;;1.63;;
8086;SDS011;4086;54.412;9.980;2022-07-10T03:22:01;5.83;;;1.77;;
8086;SDS011;4086;54.412;9.980;2022-07-10T03:24:27;5.23;;;1.93;;
8086;SDS011;4086;54.412;9.980;2022-07-10T03:26:54;4.43;;;1.20;;
8086;SDS011;4086;54.412;9.980;2022-07-10T03:29:20;8.07;;;1.87;;
8086;SDS011;4086;54.412;9.980;2022-07-10T03:31:47;6.53;;;1.70;;
8086;SDS011;4086;54.412;9.980;2022-07-10T03:34:13;4.20;;;1.30;;
8086;SDS011;4086;54.412;9.980;2022-07-10T03:36:41;10.63;;;1.47;;
8086;SDS011;4086;54.412;9.980;2022-07-10T03:39:07;3.40;;;1.23;;
8086;SDS011;4086;54.412;9.980;2022-07-10T03:41:33;3.57;;;1.47;;
8086;SDS011;4086;54.412;9.980;2022-07-10T03:44:00;5.73;;;1.57;;
8086;SDS011;4086;54.412;9.980;2022-07-10T03:46:26;6.47;;;1.87;;
8086;SDS011;4086;54.412;9.980;2022-07-10T03:48:53;4.33;;;1.60;;
8086;SDS011;4086;54.412;9.980;2022-07-10T03:51:19;5.27;;;1.83;;
8086;SDS011;4086;54.412;9.980;2022-07-10T03:53:47;2.40;;;1.37;;
8086;SDS011;4086;54.412;9.980;2022-07-10T03:56:13;3.27;;;1.10;;
8086;SDS011;4086;54.412;9.980;2022-07-10T03:59:00;4.13;;;1.00;;
8086;SDS011;4086;54.412;9.980;2022-07-10T04:01:25;3.90;;;1.37;;
8086;SDS011;4086;54.412;9.980;2022-07-10T04:03:52;4.97;;;1.60;;
8086;SDS011;4086;54.412;9.980;2022-07-10T04:06:18;4.27;;;1.20;;
8086;SDS011;4086;54.412;9.980;2022-07-10T04:08:44;3.27;;;1.50;;
8086;SDS011;4086;54.412;9.980;2022-07-10T04:11:12;4.03;;;1.27;;
8086;SDS011;4086;54.412;9.980;2022-07-10T04:13:38;2.60;;;1.17;;
8086;SDS011;4086;54.412;9.980;2022-07-10T04:16:05;6.37;;;1.80;;
8086;SDS011;4086;54.412;9.980;2022-07-10T04:18:35;7.80;;;2.13;;
8086;SDS011;4086;54.412;9.980;2022-07-10T04:21:01;2.03;;;1.07;;
8086;SDS011;4086;54.412;9.980;2022-07-10T04:23:28;7.27;;;1.90;;
8086;SDS011;4086;54.412;9.980;2022-07-10T04:25:54;2.63;;;1.20;;
8086;SDS011;4086;54.412;9.980;2022-07-10T04:28:24;3.53;;;1.00;;
8086;SDS011;4086;54.412;9.980;2022-07-10T04:30:50;6.37;;;1.90;;
8086;SDS011;4086;54.412;9.980;2022-07-10T04:33:17;4.10;;;1.60;;
8086;SDS011;4086;54.412;9.980;2022-07-10T04:35:43;6.37;;;1.63;;
8086;SDS011;4086;54.412;9.980;2022-07-10T04:38:10;4.53;;;1.27;;
8086;SDS011;4086;54.412;9.980;2022-07-10T04:40:36;6.03;;;1.53;;
8086;SDS011;4086;54.412;9.980;2022-07-10T04:43:02;6.13;;;1.43;;
8086;SDS011;4086;54.412;9.980;2022-07-10T04:45:30;6.63;;;1.70;;
8086;SDS011;4086;54.412;9.980;2022-07-10T04:47:56;5.43;;;1.63;;
8086;SDS011;4086;54.412;9.980;2022-07-10T04:50:23;3.43;;;1.23;;
8086;SDS011;4086;54.412;9.980;2022-07-10T04:52:50;4.70;;;1.27;;
8086;SDS011;4086;54.412;9.980;2022-07-10T04:55:16;3.00;;;1.13;;
8086;SDS011;4086;54.412;9.980;2022-07-10T04:57:43;5.00;;;1.30;;
8086;SDS011;4086;54.412;9.980;2022-07-10T05:00:10;5.37;;;1.20;;
8086;SDS011;4086;54.412;9.980;2022-07-10T05:02:38;3.93;;;1.43;;
8086;SDS011;4086;54.412;9.980;2022-07-10T05:05:05;5.53;;;1.63;;
8086;SDS011;4086;54.412;9.980;2022-07-10T05:07:32;4.67;;;1.50;;
8086;SDS011;4086;54.412;9.980;2022-07-10T05:09:58;3.03;;;1.30;;
8086;SDS011;4086;54.412;9.980;2022-07-10T05:12:25;4.37;;;1.43;;
8086;SDS011;4086;54.412;9.980;2022-07-10T05:14:51;1.80;;;0.93;;
8086;SDS011;4086;54.412;9.980;2022-07-10T05:17:18;6.07;;;1.30;;
8086;SDS011;4086;54.412;9.980;2022-07-10T05:19:46;5.73;;;1.73;;
8086;SDS011;4086;54.412;9.980;2022-07-10T05:22:12;3.17;;;1.00;;
8086;SDS011;4086;54.412;9.980;2022-07-10T05:24:38;3.53;;;1.60;;
8086;SDS011;4086;54.412;9.980;2022-07-10T05:27:05;4.40;;;1.60;;
8086;SDS011;4086;54.412;9.980;2022-07-10T05:29:32;4.00;;;1.20;;
8086;SDS011;4086;54.412;9.980;2022-07-10T05:31:58;7.90;;;1.63;;
8086;SDS011;4086;54.412;9.980;2022-07-10T05:34:25;2.50;;;0.90;;
8086;SDS011;4086;54.412;9.980;2022-07-10T05:36:52;4.60;;;1.10;;
8086;SDS011;4086;54.412;9.980;2022-07-10T05:39:19;3.47;;;1.27;;
8086;SDS011;4086;54.412;9.980;2022-07-10T05:41:45;4.93;;;1.20;;
8086;SDS011;4086;54.412;9.980;2022-07-10T05:44:11;4.57;;;1.50;;
8086;SDS011;4086;54.412;9.980;2022-07-10T05:46:38;7.20;;;1.50;;
8086;SDS011;4086;54.412;9.980;2022-07-10T05:49:05;7.87;;;1.60;;
8086;SDS011;4086;54.412;9.980;2022-07-10T05:51:31;3.37;;;1.60;;
8086;SDS011;4086;54.412;9.980;2022-07-10T05:53:59;6.37;;;1.70;;
8086;SDS011;4086;54.412;9.980;2022-07-10T05:56:25;2.90;;;1.10;;
8086;SDS011;4086;54.412;9.980;2022-07-10T05:58:51;2.20;;;1.10;;
8086;SDS011;4086;54.412;9.980;2022-07-10T06:01:20;2.50;;;1.10;;
8086;SDS011;4086;54.412;9.980;2022-07-10T06:03:47;3.40;;;1.30;;
8086;SDS011;4086;54.412;9.980;2022-07-10T06:06:13;3.10;;;1.20;;
8086;SDS011;4086;54.412;9.980;2022-07-10T06:08:41;2.63;;;1.30;;
8086;SDS011;4086;54.412;9.980;2022-07-10T06:11:09;2.67;;;1.43;;
8086;SDS011;4086;54.412;9.980;2022-07-10T06:13:35;4.33;;;1.20;;
8086;SDS011;4086;54.412;9.980;2022-07-10T06:16:02;5.40;;;1.27;;
8086;SDS011;4086;54.412;9.980;2022-07-10T06:18:29;4.73;;;1.43;;
8086;SDS011;4086;54.412;9.980;2022-07-10T06:20:55;4.17;;;1.60;;
8086;SDS011;4086;54.412;9.980;2022-07-10T06:23:21;3.20;;;1.20;;
8086;SDS011;4086;54.412;9.980;2022-07-10T06:25:48;3.63;;;1.07;;
8086;SDS011;4086;54.412;9.980;2022-07-10T06:28:16;4.63;;;1.07;;
8086;SDS011;4086;54.412;9.980;2022-07-10T06:30:43;4.43;;;1.60;;
8086;SDS011;4086;54.412;9.980;2022-07-10T06:33:09;3.37;;;1.30;;
8086;SDS011;4086;54.412;9.980;2022-07-10T06:35:36;3.80;;;1.17;;
8086;SDS011;4086;54.412;9.980;2022-07-10T06:38:02;4.13;;;1.03;;
8086;SDS011;4086;54.412;9.980;2022-07-10T06:40:29;2.63;;;1.00;;
8086;SDS011;4086;54.412;9.980;2022-07-10T06:43:03;3.33;;;1.37;;
8086;SDS011;4086;54.412;9.980;2022-07-10T06:45:31;4.17;;;1.33;;
8086;SDS011;4086;54.412;9.980;2022-07-10T06:47:58;5.13;;;1.40;;
8086;SDS011;4086;54.412;9.980;2022-07-10T06:50:24;3.23;;;1.23;;
8086;SDS011;4086;54.412;9.980;2022-07-10T06:52:51;3.23;;;1.20;;
8086;SDS011;4086;54.412;9.980;2022-07-10T06:55:18;5.23;;;1.50;;
8086;SDS011;4086;54.412;9.980;2022-07-10T06:57:45;4.20;;;1.30;;
8086;SDS011;4086;54.412;9.980;2022-07-10T07:00:12;4.43;;;1.37;;
8086;SDS011;4086;54.412;9.980;2022-07-10T07:02:40;2.03;;;0.90;;
8086;SDS011;4086;54.412;9.980;2022-07-10T07:05:06;4.00;;;1.20;;
8086;SDS011;4086;54.412;9.980;2022-07-10T07:07:33;2.73;;;1.30;;
8086;SDS011;4086;54.412;9.980;2022-07-10T07:10:00;4.77;;;1.13;;
8086;SDS011;4086;54.412;9.980;2022-07-10T07:12:27;4.40;;;1.20;;
8086;SDS011;4086;54.412;9.980;2022-07-10T07:14:53;4.90;;;1.83;;
8086;SDS011;4086;54.412;9.980;2022-07-10T07:17:20;4.40;;;1.70;;
8086;SDS011;4086;54.412;9.980;2022-07-10T07:19:52;3.83;;;1.30;;
8086;SDS011;4086;54.412;9.980;2022-07-10T07:22:36;3.43;;;1.00;;
8086;SDS011;4086;54.412;9.980;2022-07-10T07:25:20;4.50;;;1.57;;
8086;SDS011;4086;54.412;9.980;2022-07-10T07:27:47;6.30;;;1.20;;
8086;SDS011;4086;54.412;9.980;2022-07-10T07:30:14;2.93;;;1.10;;
8086;SDS011;4086;54.412;9.980;2022-07-10T07:32:41;1.53;;;0.90;;
8086;SDS011;4086;54.412;9.980;2022-07-10T07:35:10;3.33;;;1.30;;
8086;SDS011;4086;54.412;9.980;2022-07-10T07:37:37;5.03;;;1.40;;
8086;SDS011;4086;54.412;9.980;2022-07-10T07:40:05;2.90;;;1.17;;
8086;SDS011;4086;54.412;9.980;2022-07-10T07:42:32;3.33;;;1.00;;
8086;SDS011;4086;54.412;9.980;2022-07-10T07:44:59;2.40;;;0.97;;
8086;SDS011;4086;54.412;9.980;2022-07-10T07:47:25;4.37;;;1.30;;
8086;SDS011;4086;54.412;9.980;2022-07-10T07:49:52;3.57;;;1.30;;
8086;SDS011;4086;54.412;9.980;2022-07-10T07:52:20;3.03;;;1.00;;
8086;SDS011;4086;54.412;9.980;2022-07-10T07:54:47;2.17;;;1.53;;
8086;SDS011;4086;54.412;9.980;2022-07-10T07:57:14;3.70;;;1.07;;
8086;SDS011;4086;54.412;9.980;2022-07-10T07:59:40;2.87;;;1.20;;
8086;SDS011;4086;54.412;9.980;2022-07-10T08:02:07;2.57;;;1.23;;
8086;SDS011;4086;54.412;9.980;2022-07-10T08:04:33;1.23;;;0.80;;
8086;SDS011;4086;54.412;9.980;2022-07-10T08:06:59;3.37;;;1.23;;
8086;SDS011;4086;54.412;9.980;2022-07-10T08:09:28;1.13;;;0.90;;
8086;SDS011;4086;54.412;9.980;2022-07-10T08:11:55;3.27;;;1.20;;
8086;SDS011;4086;54.412;9.980;2022-07-10T08:14:21;4.33;;;1.87;;
8086;SDS011;4086;54.412;9.980;2022-07-10T08:16:48;3.93;;;1.40;;
8086;SDS011;4086;54.412;9.980;2022-07-10T08:19:15;2.90;;;1.13;;
8086;SDS011;4086;54.412;9.980;2022-07-10T08:21:42;2.50;;;0.90;;
8086;SDS011;4086;54.412;9.980;2022-07-10T08:24:08;4.40;;;1.27;;
8086;SDS011;4086;54.412;9.980;2022-07-10T08:26:36;7.83;;;1.10;;
8086;SDS011;4086;54.412;9.980;2022-07-10T08:29:03;3.67;;;1.53;;
8086;SDS011;4086;54.412;9.980;2022-07-10T08:31:29;2.60;;;1.00;;
8086;SDS011;4086;54.412;9.980;2022-07-10T08:33:58;3.10;;;1.10;;
8086;SDS011;4086;54.412;9.980;2022-07-10T08:36:24;3.93;;;1.07;;
8086;SDS011;4086;54.412;9.980;2022-07-10T08:38:51;3.27;;;1.43;;
8086;SDS011;4086;54.412;9.980;2022-07-10T08:41:19;3.80;;;1.20;;
8086;SDS011;4086;54.412;9.980;2022-07-10T08:43:48;3.20;;;1.07;;
8086;SDS011;4086;54.412;9.980;2022-07-10T08:46:15;2.33;;;1.13;;
8086;SDS011;4086;54.412;9.980;2022-07-10T08:48:44;2.00;;;1.03;;
8086;SDS011;4086;54.412;9.980;2022-07-10T08:51:15;4.47;;;1.30;;
8086;SDS011;4086;54.412;9.980;2022-07-10T08:53:45;5.97;;;1.30;;
8086;SDS011;4086;54.412;9.980;2022-07-10T08:56:15;2.73;;;1.20;;
8086;SDS011;4086;54.412;9.980;2022-07-10T08:58:41;2.97;;;1.33;;
8086;SDS011;4086;54.412;9.980;2022-07-10T09:01:09;5.53;;;1.47;;
8086;SDS011;4086;54.412;9.980;2022-07-10T09:03:36;2.00;;;0.70;;
8086;SDS011;4086;54.412;9.980;2022-07-10T09:06:04;1.07;;;0.77;;
8086;SDS011;4086;54.412;9.980;2022-07-10T09:08:30;2.87;;;1.10;;
8086;SDS011;4086;54.412;9.980;2022-07-10T09:11:12;5.30;;;1.70;;
8086;SDS011;4086;54.412;9.980;2022-07-10T09:13:48;5.27;;;1.13;;
8086;SDS011;4086;54.412;9.980;2022-07-10T09:16:21;3.13;;;1.33;;
8086;SDS011;4086;54.412;9.980;2022-07-10T09:18:48;0.80;;;0.77;;
8086;SDS011;4086;54.412;9.980;2022-07-10T09:21:14;3.40;;;1.03;;
8086;SDS011;4086;54.412;9.980;2022-07-10T09:23:41;2.70;;;1.30;;
8086;SDS011;4086;54.412;9.980;2022-07-10T09:26:07;1.70;;;1.07;;
8086;SDS011;4086;54.412;9.980;2022-07-10T09:28:33;3.17;;;1.20;;
8086;SDS011;4086;54.412;9.980;2022-07-10T09:31:00;3.00;;;0.93;;
8086;SDS011;4086;54.412;9.980;2022-07-10T09:33:28;3.00;;;1.03;;
8086;SDS011;4086;54.412;9.980;2022-07-10T09:35:56;2.57;;;0.80;;
8086;SDS011;4086;54.412;9.980;2022-07-10T09:38:53;6.73;;;1.10;;
8086;SDS011;4086;54.412;9.980;2022-07-10T09:41:23;2.83;;;0.90;;
8086;SDS011;4086;54.412;9.980;2022-07-10T09:43:51;3.83;;;1.23;;
8086;SDS011;4086;54.412;9.980;2022-07-10T09:46:21;1.63;;;0.97;;
8086;SDS011;4086;54.412;9.980;2022-07-10T09:48:49;3.70;;;1.37;;
8086;SDS011;4086;54.412;9.980;2022-07-10T09:51:26;4.53;;;1.20;;
8086;SDS011;4086;54.412;9.980;2022-07-10T09:53:56;3.43;;;1.23;;
8086;SDS011;4086;54.412;9.980;2022-07-10T09:56:22;8.23;;;1.60;;
8086;SDS011;4086;54.412;9.980;2022-07-10T09:58:49;4.40;;;1.30;;
8086;SDS011;4086;54.412;9.980;2022-07-10T10:01:18;4.27;;;1.03;;
8086;SDS011;4086;54.412;9.980;2022-07-10T10:03:50;3.70;;;1.33;;
8086;SDS011;4086;54.412;9.980;2022-07-10T10:06:16;4.03;;;1.07;;
8086;SDS011;4086;54.412;9.980;2022-07-10T10:08:44;2.10;;;1.13;;
8086;SDS011;4086;54.412;9.980;2022-07-10T10:11:16;6.30;;;1.10;;
8086;SDS011;4086;54.412;9.980;2022-07-10T10:13:46;2.40;;;1.00;;
8086;SDS011;4086;54.412;9.980;2022-07-10T10:16:13;4.57;;;1.17;;
8086;SDS011;4086;54.412;9.980;2022-07-10T10:18:39;1.80;;;0.93;;
8086;SDS011;4086;54.412;9.980;2022-07-10T10:21:28;2.10;;;0.83;;
8086;SDS011;4086;54.412;9.980;2022-07-10T10:23:54;4.13;;;1.40;;
8086;SDS011;4086;54.412;9.980;2022-07-10T10:26:21;4.63;;;1.33;;
8086;SDS011;4086;54.412;9.980;2022-07-10T10:28:49;4.50;;;1.33;;
8086;SDS011;4086;54.412;9.980;2022-07-10T10:31:16;2.63;;;0.90;;
8086;SDS011;4086;54.412;9.980;2022-07-10T10:33:45;3.20;;;1.33;;
8086;SDS011;4086;54.412;9.980;2022-07-10T10:36:13;5.47;;;1.10;;
8086;SDS011;4086;54.412;9.980;2022-07-10T10:39:02;3.53;;;1.10;;
8086;SDS011;4086;54.412;9.980;2022-07-10T10:41:36;1.57;;;1.13;;
8086;SDS011;4086;54.412;9.980;2022-07-10T10:46:55;1.90;;;0.90;;
8086;SDS011;4086;54.412;9.980;2022-07-10T10:49:26;2.53;;;1.00;;
8086;SDS011;4086;54.412;9.980;2022-07-10T10:51:56;4.13;;;1.10;;
8086;SDS011;4086;54.412;9.980;2022-07-10T10:54:25;1.30;;;0.80;;
8086;SDS011;4086;54.412;9.980;2022-07-10T10:59:44;1.87;;;0.90;;
8086;SDS011;4086;54.412;9.980;2022-07-10T11:02:24;3.17;;;1.20;;
8086;SDS011;4086;54.412;9.980;2022-07-10T11:05:00;1.17;;;0.80;;
8086;SDS011;4086;54.412;9.980;2022-07-10T11:08:10;1.23;;;0.90;;
8086;SDS011;4086;54.412;9.980;2022-07-10T11:10:39;2.90;;;1.03;;
8086;SDS011;4086;54.412;9.980;2022-07-10T11:13:14;3.93;;;1.20;;
8086;SDS011;4086;54.412;9.980;2022-07-10T11:15:44;3.23;;;1.10;;
8086;SDS011;4086;54.412;9.980;2022-07-10T11:18:12;1.77;;;0.90;;
8086;SDS011;4086;54.412;9.980;2022-07-10T11:20:40;3.10;;;1.20;;
8086;SDS011;4086;54.412;9.980;2022-07-10T11:26:11;2.70;;;1.17;;
8086;SDS011;4086;54.412;9.980;2022-07-10T11:28:46;1.63;;;0.80;;
8086;SDS011;4086;54.412;9.980;2022-07-10T11:31:15;3.90;;;1.10;;
8086;SDS011;4086;54.412;9.980;2022-07-10T11:33:50;3.30;;;1.20;;
8086;SDS011;4086;54.412;9.980;2022-07-10T11:36:18;2.07;;;1.13;;
8086;SDS011;4086;54.412;9.980;2022-07-10T11:38:47;4.07;;;1.20;;
8086;SDS011;4086;54.412;9.980;2022-07-10T11:41:16;1.27;;;1.10;;
8086;SDS011;4086;54.412;9.980;2022-07-10T11:43:47;1.30;;;0.70;;
8086;SDS011;4086;54.412;9.980;2022-07-10T11:46:14;2.27;;;0.93;;
8086;SDS011;4086;54.412;9.980;2022-07-10T11:48:41;2.87;;;1.00;;
8086;SDS011;4086;54.412;9.980;2022-07-10T11:51:18;3.30;;;1.30;;
8086;SDS011;4086;54.412;9.980;2022-07-10T11:53:55;3.60;;;0.93;;
8086;SDS011;4086;54.412;9.980;2022-07-10T11:56:24;2.20;;;1.03;;
8086;SDS011;4086;54.412;9.980;2022-07-10T11:58:54;2.90;;;1.00;;
8086;SDS011;4086;54.412;9.980;2022-07-10T12:01:22;3.33;;;1.27;;
8086;SDS011;4086;54.412;9.980;2022-07-10T12:03:58;3.27;;;0.90;;
8086;SDS011;4086;54.412;9.980;2022-07-10T12:06:25;1.83;;;1.07;;
8086;SDS011;4086;54.412;9.980;2022-07-10T12:08:52;1.67;;;1.00;;
8086;SDS011;4086;54.412;9.980;2022-07-10T12:11:19;1.00;;;0.83;;
8086;SDS011;4086;54.412;9.980;2022-07-10T12:13:48;1.77;;;1.10;;
8086;SDS011;4086;54.412;9.980;2022-07-10T12:16:16;1.47;;;0.87;;
8086;SDS011;4086;54.412;9.980;2022-07-10T12:18:43;1.53;;;0.80;;
8086;SDS011;4086;54.412;9.980;2022-07-10T12:21:10;2.03;;;1.10;;
8086;SDS011;4086;54.412;9.980;2022-07-10T12:23:38;4.77;;;2.80;;
8086;SDS011;4086;54.412;9.980;2022-07-10T12:26:07;3.37;;;1.37;;
8086;SDS011;4086;54.412;9.980;2022-07-10T12:28:48;1.23;;;1.00;;
8086;SDS011;4086;54.412;9.980;2022-07-10T12:31:19;10.27;;;9.20;;
8086;SDS011;4086;54.412;9.980;2022-07-10T12:33:49;13.00;;;9.40;;
8086;SDS011;4086;54.412;9.980;2022-07-10T12:36:16;18.90;;;14.80;;
8086;SDS011;4086;54.412;9.980;2022-07-10T12:38:42;10.20;;;6.40;;
8086;SDS011;4086;54.412;9.980;2022-07-10T12:41:19;1.97;;;1.10;;
8086;SDS011;4086;54.412;9.980;2022-07-10T12:43:50;2.20;;;0.80;;
8086;SDS011;4086;54.412;9.980;2022-07-10T12:46:18;2.03;;;1.33;;
8086;SDS011;4086;54.412;9.980;2022-07-10T12:49:00;1.87;;;1.30;;
8086;SDS011;4086;54.412;9.980;2022-07-10T12:51:28;3.10;;;1.10;;
8086;SDS011;4086;54.412;9.980;2022-07-10T12:53:55;2.73;;;1.63;;
8086;SDS011;4086;54.412;9.980;2022-07-10T12:56:28;3.60;;;1.43;;
8086;SDS011;4086;54.412;9.980;2022-07-10T12:58:57;2.57;;;0.90;;
8086;SDS011;4086;54.412;9.980;2022-07-10T13:01:25;1.33;;;0.80;;
8086;SDS011;4086;54.412;9.980;2022-07-10T13:03:59;4.80;;;2.17;;
8086;SDS011;4086;54.412;9.980;2022-07-10T13:06:26;1.33;;;0.90;;
8086;SDS011;4086;54.412;9.980;2022-07-10T13:08:54;2.13;;;0.90;;
8086;SDS011;4086;54.412;9.980;2022-07-10T13:11:20;1.87;;;1.37;;
8086;SDS011;4086;54.412;9.980;2022-07-10T13:13:47;4.30;;;1.20;;
8086;SDS011;4086;54.412;9.980;2022-07-10T13:16:15;4.30;;;1.47;;
8086;SDS011;4086;54.412;9.980;2022-07-10T13:18:41;3.53;;;1.10;;
8086;SDS011;4086;54.412;9.980;2022-07-10T13:21:09;3.40;;;1.13;;
8086;SDS011;4086;54.412;9.980;2022-07-10T13:23:36;2.93;;;1.20;;
8086;SDS011;4086;54.412;9.980;2022-07-10T13:26:03;3.40;;;1.20;;
8086;SDS011;4086;54.412;9.980;2022-07-10T13:28:31;5.17;;;1.20;;
8086;SDS011;4086;54.412;9.980;2022-07-10T13:30:58;1.73;;;1.00;;
8086;SDS011;4086;54.412;9.980;2022-07-10T13:33:26;2.67;;;1.10;;
8086;SDS011;4086;54.412;9.980;2022-07-10T13:35:53;2.40;;;1.33;;
8086;SDS011;4086;54.412;9.980;2022-07-10T13:38:20;2.57;;;1.20;;
8086;SDS011;4086;54.412;9.980;2022-07-10T13:40:48;3.10;;;1.20;;
8086;SDS011;4086;54.412;9.980;2022-07-10T13:43:15;3.17;;;1.20;;
8086;SDS011;4086;54.412;9.980;2022-07-10T13:45:42;1.17;;;0.90;;
8086;SDS011;4086;54.412;9.980;2022-07-10T13:48:09;2.67;;;1.33;;
8086;SDS011;4086;54.412;9.980;2022-07-10T13:50:37;2.80;;;1.30;;
8086;SDS011;4086;54.412;9.980;2022-07-10T13:53:04;4.20;;;1.07;;
8086;SDS011;4086;54.412;9.980;2022-07-10T13:55:31;1.57;;;1.00;;
8086;SDS011;4086;54.412;9.980;2022-07-10T13:57:59;2.27;;;1.37;;
8086;SDS011;4086;54.412;9.980;2022-07-10T14:00:25;2.03;;;1.10;;
8086;SDS011;4086;54.412;9.980;2022-07-10T14:02:52;3.77;;;1.27;;
8086;SDS011;4086;54.412;9.980;2022-07-10T14:05:20;6.10;;;1.47;;
8086;SDS011;4086;54.412;9.980;2022-07-10T14:07:48;3.90;;;1.63;;
8086;SDS011;4086;54.412;9.980;2022-07-10T14:10:15;3.37;;;1.37;;
8086;SDS011;4086;54.412;9.980;2022-07-10T14:12:41;3.23;;;1.57;;
8086;SDS011;4086;54.412;9.980;2022-07-10T14:15:08;2.30;;;0.90;;
8086;SDS011;4086;54.412;9.980;2022-07-10T14:17:35;4.20;;;1.20;;
8086;SDS011;4086;54.412;9.980;2022-07-10T14:20:01;4.10;;;1.00;;
8086;SDS011;4086;54.412;9.980;2022-07-10T14:22:28;1.83;;;1.23;;
8086;SDS011;4086;54.412;9.980;2022-07-10T14:24:57;2.10;;;1.07;;
8086;SDS011;4086;54.412;9.980;2022-07-10T14:27:25;4.20;;;1.10;;
8086;SDS011;4086;54.412;9.980;2022-07-10T14:29:54;2.80;;;1.10;;
8086;SDS011;4086;54.412;9.980;2022-07-10T14:32:20;3.37;;;1.23;;
8086;SDS011;4086;54.412;9.980;2022-07-10T14:34:47;2.93;;;1.13;;
8086;SDS011;4086;54.412;9.980;2022-07-10T14:37:13;2.80;;;0.97;;
8086;SDS011;4086;54.412;9.980;2022-07-10T14:39:39;2.90;;;1.07;;
8086;SDS011;4086;54.412;9.980;2022-07-10T14:42:08;3.00;;;1.20;;
8086;SDS011;4086;54.412;9.980;2022-07-10T14:44:35;2.03;;;1.00;;
8086;SDS011;4086;54.412;9.980;2022-07-10T14:47:02;2.70;;;1.03;;
8086;SDS011;4086;54.412;9.980;2022-07-10T14:49:28;2.47;;;1.10;;
8086;SDS011;4086;54.412;9.980;2022-07-10T14:51:55;3.20;;;1.30;;
8086;SDS011;4086;54.412;9.980;2022-07-10T14:54:21;4.67;;;1.23;;
8086;SDS011;4086;54.412;9.980;2022-07-10T14:56:48;1.20;;;1.10;;
8086;SDS011;4086;54.412;9.980;2022-07-10T14:59:16;3.43;;;1.30;;
8086;SDS011;4086;54.412;9.980;2022-07-10T15:01:42;3.73;;;1.20;;
8086;SDS011;4086;54.412;9.980;2022-07-10T15:04:09;2.77;;;1.00;;
8086;SDS011;4086;54.412;9.980;2022-07-10T15:06:35;1.20;;;0.90;;
8086;SDS011;4086;54.412;9.980;2022-07-10T15:09:02;1.83;;;1.10;;
8086;SDS011;4086;54.412;9.980;2022-07-10T15:11:29;4.13;;;1.23;;
8086;SDS011;4086;54.412;9.980;2022-07-10T15:13:55;2.60;;;1.00;;
8086;SDS011;4086;54.412;9.980;2022-07-10T15:16:26;2.60;;;1.30;;
8086;SDS011;4086;54.412;9.980;2022-07-10T15:18:52;3.93;;;1.40;;
8086;SDS011;4086;54.412;9.980;2022-07-10T15:21:19;2.30;;;1.00;;
8086;SDS011;4086;54.412;9.980;2022-07-10T15:23:45;3.77;;;1.30;;
8086;SDS011;4086;54.412;9.980;2022-07-10T15:26:12;2.43;;;1.07;;
8086;SDS011;4086;54.412;9.980;2022-07-10T15:28:39;1.87;;;0.90;;